Itaobim, Brazil
Current Conditions -  °F | °C
As of 12:00 AM on Saturday 20 Dec 2014 (Local Time) from SBQV Reporting Station
Light Rain Light Rain  
Wind Chill: 70°   Ceiling: 500
Heat Index: 70°   Visibility: 5mi
Dew Point: 70°   Wind: 5mph
Humidity: 100%   Direction: 70°ENE
Pressure: 30.06"   Gusts: NA
Location:  16.55°S, 41.51°W
Report Text: SBQV 200200Z 07004KT 8000 -RA BKN005 21/21 Q1018
Loading
Personal Weather Stations






























Interactive Weather Map New forecast layout! Learn more

10-Day Weather Forecast

Advertisements
Track Severe Weather on mobile